createdAt,value
2023-05-12T00:00:53.136Z,1.33
2023-05-12T00:03:20.992Z,1.03
2023-05-12T00:05:48.924Z,1.20
2023-05-12T00:08:16.937Z,1.43
2023-05-12T00:10:46.275Z,1.20
2023-05-12T00:13:14.355Z,1.03
2023-05-12T00:15:42.672Z,0.77
2023-05-12T00:18:10.562Z,0.93
2023-05-12T00:20:39.204Z,1.20
2023-05-12T00:23:07.026Z,0.90
2023-05-12T00:25:35.022Z,0.73
2023-05-12T00:28:04.291Z,0.90
2023-05-12T00:30:32.277Z,0.90
2023-05-12T00:33:00.149Z,1.03
2023-05-12T00:35:28.112Z,1.00
2023-05-12T00:37:55.900Z,0.90
2023-05-12T00:40:23.741Z,1.00
2023-05-12T00:42:51.536Z,1.03
2023-05-12T00:45:22.267Z,1.17
2023-05-12T00:47:51.419Z,1.30
2023-05-12T00:50:19.616Z,1.30
2023-05-12T00:52:48.026Z,1.17
2023-05-12T00:55:16.147Z,1.30
2023-05-12T00:57:44.252Z,1.20
2023-05-12T01:00:13.225Z,1.30
2023-05-12T01:02:42.596Z,1.20
2023-05-12T01:05:11.167Z,1.20
2023-05-12T01:07:40.419Z,1.17
2023-05-12T01:10:18.868Z,1.13
2023-05-12T01:12:47.152Z,1.20
2023-05-12T01:15:15.288Z,1.10
2023-05-12T01:17:48.934Z,1.00
2023-05-12T01:20:18.410Z,1.20
2023-05-12T01:22:47.714Z,0.97
2023-05-12T01:25:16.515Z,0.93
2023-05-12T01:27:46.481Z,1.13
2023-05-12T01:30:18.031Z,1.13
2023-05-12T01:32:46.340Z,1.23
2023-05-12T01:35:14.246Z,1.20
2023-05-12T01:37:42.186Z,1.00
2023-05-12T01:40:10.615Z,1.20
2023-05-12T01:42:40.325Z,1.07
2023-05-12T01:45:11.026Z,1.20
2023-05-12T01:47:38.900Z,1.13
2023-05-12T01:50:07.446Z,1.00
2023-05-12T01:52:35.424Z,1.00
2023-05-12T01:55:03.267Z,1.30
2023-05-12T01:57:31.088Z,1.20
2023-05-12T01:59:58.915Z,1.30
2023-05-12T02:02:28.349Z,1.30
2023-05-12T02:04:56.266Z,1.70
2023-05-12T02:07:24.466Z,1.50
2023-05-12T02:09:52.283Z,1.37
2023-05-12T02:12:20.339Z,1.40
2023-05-12T02:14:48.201Z,1.30
2023-05-12T02:17:17.168Z,1.50
2023-05-12T02:19:46.376Z,1.30
2023-05-12T02:22:14.194Z,1.40
2023-05-12T02:24:42.024Z,1.37
2023-05-12T02:27:09.915Z,1.40
2023-05-12T02:29:38.090Z,1.40
2023-05-12T02:32:06.828Z,1.37
2023-05-12T02:34:34.869Z,1.60
2023-05-12T02:37:04.075Z,1.40
2023-05-12T02:39:32.177Z,1.50
2023-05-12T02:42:00.049Z,1.30
2023-05-12T02:44:28.016Z,1.17
2023-05-12T02:46:58.019Z,1.23
2023-05-12T02:49:25.833Z,1.63
2023-05-12T02:51:55.200Z,1.40
2023-05-12T02:54:24.553Z,1.47
2023-05-12T02:56:53.249Z,1.50
2023-05-12T02:59:21.074Z,1.50
2023-05-12T03:01:48.878Z,1.73
2023-05-12T03:04:16.766Z,1.50
2023-05-12T03:06:44.601Z,1.70
2023-05-12T03:09:12.449Z,1.60
2023-05-12T03:11:41.740Z,1.50
2023-05-12T03:14:09.616Z,1.70
2023-05-12T03:16:37.421Z,1.70
2023-05-12T03:19:05.674Z,1.80
2023-05-12T03:21:33.574Z,1.70
2023-05-12T03:24:01.400Z,1.53
2023-05-12T03:26:29.228Z,1.50
2023-05-12T03:28:58.420Z,1.50
2023-05-12T03:31:26.372Z,1.70
2023-05-12T03:33:54.250Z,1.60
2023-05-12T03:36:22.114Z,1.40
2023-05-12T03:38:49.921Z,1.60
2023-05-12T03:41:18.257Z,1.70
2023-05-12T03:43:46.120Z,1.70
2023-05-12T03:46:15.378Z,1.60
2023-05-12T03:48:43.325Z,1.63
2023-05-12T03:51:11.140Z,1.60
2023-05-12T03:53:40.192Z,1.57
2023-05-12T03:56:08.609Z,1.83
2023-05-12T03:58:36.521Z,1.60
2023-05-12T04:01:04.382Z,1.40
2023-05-12T04:03:33.798Z,1.30
2023-05-12T04:06:02.305Z,1.47
2023-05-12T04:08:30.581Z,1.40
2023-05-12T04:10:59.589Z,1.63
2023-05-12T04:13:28.116Z,1.80
2023-05-12T04:15:56.814Z,1.90
2023-05-12T04:18:25.076Z,1.80
2023-05-12T04:20:54.632Z,2.00
2023-05-12T04:23:22.884Z,1.77
2023-05-12T04:25:50.717Z,1.70
2023-05-12T04:28:18.569Z,1.83
2023-05-12T04:30:46.406Z,1.60
2023-05-12T04:33:14.209Z,1.70
2023-05-12T04:35:42.316Z,1.70
2023-05-12T04:38:11.527Z,1.80
2023-05-12T04:40:39.327Z,2.20
2023-05-12T04:43:07.233Z,1.50
2023-05-12T04:45:35.273Z,1.53
2023-05-12T04:48:03.154Z,1.50
2023-05-12T04:50:31.012Z,1.30
2023-05-12T04:52:58.826Z,1.33
2023-05-12T04:55:28.041Z,1.20
2023-05-12T04:57:55.847Z,1.10
2023-05-12T05:00:24.110Z,1.40
2023-05-12T05:02:52.072Z,1.20
2023-05-12T05:05:20.178Z,1.30
2023-05-12T05:07:48.150Z,1.50
2023-05-12T05:10:16.069Z,1.33
2023-05-12T05:12:45.269Z,1.30
2023-05-12T05:15:13.323Z,1.23
2023-05-12T05:17:43.166Z,1.13
2023-05-12T05:20:12.627Z,1.03
2023-05-12T05:22:43.036Z,1.23
2023-05-12T05:25:11.457Z,1.40
2023-05-12T05:27:39.741Z,1.63
2023-05-12T05:30:10.110Z,1.70
2023-05-12T05:32:40.211Z,1.60
2023-05-12T05:35:09.082Z,1.40
2023-05-12T05:37:37.452Z,1.40
2023-05-12T05:40:06.177Z,1.80
2023-05-12T05:42:34.032Z,1.70
2023-05-12T05:45:01.937Z,1.40
2023-05-12T05:47:32.242Z,1.97
2023-05-12T05:50:00.943Z,1.73
2023-05-12T05:52:28.798Z,1.70
2023-05-12T05:54:56.613Z,1.50
2023-05-12T05:57:30.339Z,1.40
2023-05-12T05:59:58.161Z,1.40
2023-05-12T06:02:26.110Z,1.40
2023-05-12T06:04:55.468Z,1.30
2023-05-12T06:07:23.332Z,1.47
2023-05-12T06:09:51.159Z,1.40
2023-05-12T06:12:18.980Z,1.20
2023-05-12T06:14:46.791Z,1.10
2023-05-12T06:17:14.943Z,1.00
2023-05-12T06:19:44.077Z,1.10
2023-05-12T06:22:13.348Z,1.50
2023-05-12T06:24:41.206Z,1.10
2023-05-12T06:27:09.484Z,1.20
2023-05-12T06:29:37.312Z,1.27
2023-05-12T06:32:05.495Z,1.30
2023-05-12T06:34:33.785Z,1.60
2023-05-12T06:37:01.726Z,1.37
2023-05-12T06:39:30.902Z,1.53
2023-05-12T06:41:58.704Z,1.80
2023-05-12T06:44:26.844Z,1.70
2023-05-12T06:46:54.812Z,1.60
2023-05-12T06:49:22.673Z,1.80
2023-05-12T06:51:50.516Z,1.60
2023-05-12T06:54:18.348Z,1.70
2023-05-12T06:56:47.533Z,1.77
2023-05-12T06:59:15.379Z,1.50
2023-05-12T07:01:43.311Z,1.60
2023-05-12T07:04:11.337Z,1.73
2023-05-12T07:06:39.293Z,1.43
2023-05-12T07:09:07.210Z,1.33
2023-05-12T07:11:35.088Z,1.30
2023-05-12T07:14:04.359Z,1.50
2023-05-12T07:16:32.545Z,1.50
2023-05-12T07:19:00.428Z,1.73
2023-05-12T07:21:29.040Z,1.90
2023-05-12T07:23:56.955Z,1.97
2023-05-12T07:26:24.913Z,1.80
2023-05-12T07:28:52.866Z,1.80
2023-05-12T07:31:22.090Z,1.50
2023-05-12T07:33:50.041Z,1.67
2023-05-12T07:36:18.514Z,1.70
2023-05-12T07:38:47.132Z,1.53
2023-05-12T07:41:15.520Z,1.53
2023-05-12T07:43:43.343Z,1.53
2023-05-12T07:46:11.498Z,1.70
2023-05-12T07:48:40.780Z,1.90
2023-05-12T07:51:09.040Z,1.60
2023-05-12T07:53:36.882Z,2.10
2023-05-12T07:56:05.728Z,2.37
2023-05-12T07:58:33.628Z,1.93
2023-05-12T08:01:05.950Z,2.50
2023-05-12T08:03:34.039Z,2.20
2023-05-12T08:06:05.855Z,2.47
2023-05-12T08:08:33.689Z,2.10
2023-05-12T08:11:01.586Z,2.13
2023-05-12T08:13:29.453Z,2.30
2023-05-12T08:15:57.246Z,2.03
2023-05-12T08:18:25.482Z,2.10
2023-05-12T08:20:53.398Z,2.13
2023-05-12T08:23:22.592Z,2.00
2023-05-12T08:25:51.151Z,2.20
2023-05-12T08:28:18.974Z,2.17
2023-05-12T08:30:46.834Z,2.07
2023-05-12T08:33:15.788Z,2.50
2023-05-12T08:35:43.659Z,2.10
2023-05-12T08:38:11.557Z,2.20
2023-05-12T08:40:45.734Z,1.83
2023-05-12T08:43:19.723Z,1.83
2023-05-12T08:45:48.581Z,2.00
2023-05-12T08:48:16.672Z,1.60
2023-05-12T08:50:45.818Z,1.50
2023-05-12T08:53:15.200Z,1.60
2023-05-12T08:55:57.113Z,1.63
2023-05-12T08:58:40.811Z,1.53
2023-05-12T09:01:09.846Z,1.40
2023-05-12T09:03:37.758Z,1.20
2023-05-12T09:06:07.265Z,1.17
2023-05-12T09:08:35.830Z,1.30
2023-05-12T09:11:06.494Z,1.50
2023-05-12T09:13:48.103Z,1.60
2023-05-12T09:16:16.351Z,1.33
2023-05-12T09:18:51.829Z,1.70
2023-05-12T09:21:19.882Z,1.77
2023-05-12T09:23:58.284Z,1.40
2023-05-12T09:26:29.014Z,1.33
2023-05-12T09:29:08.276Z,1.47
2023-05-12T09:31:36.566Z,1.53
2023-05-12T09:34:08.920Z,2.23
2023-05-12T09:36:38.024Z,2.10
2023-05-12T09:39:07.348Z,1.70
2023-05-12T09:41:38.112Z,2.00
2023-05-12T09:44:06.712Z,2.10
2023-05-12T09:46:34.667Z,1.73
2023-05-12T09:49:03.649Z,2.20
2023-05-12T09:51:32.316Z,1.97
2023-05-12T09:54:00.844Z,2.23
2023-05-12T09:56:31.439Z,2.17
2023-05-12T09:59:01.663Z,1.97
2023-05-12T10:01:29.646Z,1.97
2023-05-12T10:03:58.708Z,1.90
2023-05-12T10:06:29.040Z,2.03
2023-05-12T10:09:06.020Z,1.73
2023-05-12T10:11:33.932Z,1.70
2023-05-12T10:14:03.456Z,1.70
2023-05-12T10:16:31.612Z,1.80
2023-05-12T10:18:59.870Z,1.47
2023-05-12T10:21:27.723Z,1.10
2023-05-12T10:23:55.857Z,1.20
2023-05-12T10:26:25.650Z,1.30
2023-05-12T10:28:54.069Z,1.30
2023-05-12T10:31:24.282Z,1.20
2023-05-12T10:33:59.107Z,1.27
2023-05-12T10:36:27.321Z,1.10
2023-05-12T10:38:56.071Z,1.33
2023-05-12T10:41:31.171Z,1.27
2023-05-12T10:43:59.087Z,1.10
2023-05-12T10:46:28.700Z,1.20
2023-05-12T10:48:58.996Z,1.30
2023-05-12T10:51:28.892Z,1.20
2023-05-12T10:54:01.263Z,1.23
2023-05-12T10:56:30.791Z,1.00
2023-05-12T10:59:20.654Z,1.17
2023-05-12T11:02:03.601Z,1.27
2023-05-12T11:04:44.495Z,1.30
2023-05-12T11:07:14.335Z,1.70
2023-05-12T11:09:53.597Z,1.50
2023-05-12T11:12:24.595Z,1.40
2023-05-12T11:14:52.680Z,1.27
2023-05-12T11:17:22.061Z,1.20
2023-05-12T11:19:52.687Z,1.07
2023-05-12T11:22:22.073Z,1.00
2023-05-12T11:27:26.022Z,0.80
2023-05-12T11:29:57.996Z,1.00
2023-05-12T11:32:27.651Z,0.73
2023-05-12T11:34:56.142Z,0.70
2023-05-12T11:37:24.356Z,0.77
2023-05-12T11:39:53.105Z,0.87
2023-05-12T11:42:23.528Z,0.90
2023-05-12T11:44:55.534Z,0.70
2023-05-12T11:47:23.468Z,0.70
2023-05-12T11:49:54.480Z,0.90
2023-05-12T11:52:24.137Z,0.80
2023-05-12T11:54:53.367Z,0.80
2023-05-12T11:57:28.410Z,0.90
2023-05-12T12:00:00.356Z,0.80
2023-05-12T12:02:28.708Z,0.80
2023-05-12T12:04:58.401Z,0.70
2023-05-12T12:07:32.674Z,0.80
2023-05-12T12:10:00.890Z,0.80
2023-05-12T12:12:28.765Z,0.90
2023-05-12T12:15:00.061Z,1.10
2023-05-12T12:17:30.882Z,0.90
2023-05-12T12:20:00.387Z,0.97
2023-05-12T12:22:29.761Z,0.80
2023-05-12T12:24:57.620Z,1.07
2023-05-12T12:27:25.469Z,0.93
2023-05-12T12:29:53.801Z,0.73
2023-05-12T12:32:21.967Z,1.10
2023-05-12T12:34:49.848Z,1.00
2023-05-12T12:37:19.101Z,1.67
2023-05-12T12:39:47.832Z,3.60
2023-05-12T12:42:15.935Z,3.97
2023-05-12T12:44:46.069Z,3.30
2023-05-12T12:47:13.955Z,3.57
2023-05-12T12:49:42.385Z,3.70
2023-05-12T12:52:10.239Z,2.87
2023-05-12T12:54:39.424Z,1.93
2023-05-12T12:57:07.307Z,1.70
2023-05-12T12:59:35.162Z,1.43
2023-05-12T13:02:03.135Z,1.10
2023-05-12T13:04:31.414Z,1.20
2023-05-12T13:06:59.298Z,1.20
2023-05-12T13:09:27.136Z,1.00
2023-05-12T13:11:56.397Z,1.00
2023-05-12T13:14:24.398Z,1.00
2023-05-12T13:16:52.856Z,1.10
2023-05-12T13:19:21.701Z,1.30
2023-05-12T13:21:49.668Z,1.43
2023-05-12T13:24:17.545Z,1.10
2023-05-12T13:26:45.443Z,1.17
2023-05-12T13:29:14.688Z,1.00
2023-05-12T13:31:43.135Z,1.20
2023-05-12T13:34:11.050Z,1.20
2023-05-12T13:36:38.906Z,1.20
2023-05-12T13:39:06.970Z,0.90
2023-05-12T13:41:35.058Z,0.97
2023-05-12T13:44:03.122Z,1.00
2023-05-12T13:46:32.354Z,1.20
2023-05-12T13:49:00.228Z,1.00
2023-05-12T13:51:28.134Z,1.10
2023-05-12T13:53:55.972Z,1.00
2023-05-12T13:56:24.329Z,1.23
2023-05-12T13:58:52.794Z,1.03
2023-05-12T14:01:20.816Z,1.27
2023-05-12T14:03:50.090Z,1.10
2023-05-12T14:06:18.932Z,1.10
2023-05-12T14:08:46.741Z,1.20
2023-05-12T14:11:14.530Z,1.40
2023-05-12T14:13:42.356Z,1.27
2023-05-12T14:16:11.651Z,1.63
2023-05-12T14:18:40.377Z,1.40
2023-05-12T14:21:11.248Z,1.40
2023-05-12T14:23:39.082Z,1.40
2023-05-12T14:26:06.987Z,1.40
2023-05-12T14:28:34.828Z,1.30
2023-05-12T14:31:03.610Z,1.40
2023-05-12T14:33:31.566Z,1.40
2023-05-12T14:36:07.335Z,1.30
2023-05-12T14:38:38.034Z,1.20
2023-05-12T14:41:08.165Z,1.27
2023-05-12T14:43:36.045Z,1.30
2023-05-12T14:46:04.513Z,1.10
2023-05-12T14:48:32.446Z,1.10
2023-05-12T14:51:00.389Z,1.40
2023-05-12T14:53:28.210Z,1.60
2023-05-12T14:55:57.507Z,1.40
2023-05-12T14:58:25.348Z,1.50
2023-05-12T15:00:53.464Z,1.40
2023-05-12T15:03:21.652Z,1.00
2023-05-12T15:08:21.602Z,1.20
2023-05-12T15:10:49.883Z,1.30
2023-05-12T15:13:20.553Z,1.20
2023-05-12T15:15:48.636Z,1.40
2023-05-12T15:18:16.943Z,1.20
2023-05-12T15:20:44.834Z,1.30
2023-05-12T15:23:12.694Z,1.60
2023-05-12T15:25:41.293Z,1.60
2023-05-12T15:28:09.455Z,1.20
2023-05-12T15:30:38.742Z,1.30
2023-05-12T15:33:07.155Z,1.67
2023-05-12T15:35:35.487Z,1.53
2023-05-12T15:38:03.413Z,1.30
2023-05-12T15:40:33.430Z,1.50
2023-05-12T15:43:02.569Z,1.20
2023-05-12T15:45:31.422Z,1.13
2023-05-12T15:48:00.748Z,1.20
2023-05-12T15:50:28.739Z,1.10
2023-05-12T15:52:56.603Z,1.37
2023-05-12T15:55:24.500Z,1.00
2023-05-12T15:57:53.619Z,1.00
2023-05-12T16:00:22.743Z,1.10
2023-05-12T16:02:50.824Z,1.30
2023-05-12T16:05:20.451Z,1.20
2023-05-12T16:07:48.640Z,1.00
2023-05-12T16:10:17.555Z,1.10
2023-05-12T16:12:46.720Z,1.17
2023-05-12T16:15:14.913Z,1.00
2023-05-12T16:17:43.014Z,1.13
2023-05-12T16:20:11.902Z,1.10
2023-05-12T16:22:41.139Z,1.10
2023-05-12T16:25:09.781Z,1.03
2023-05-12T16:27:38.969Z,1.07
2023-05-12T16:30:08.052Z,1.10
2023-05-12T16:32:35.921Z,0.90
2023-05-12T16:35:03.864Z,1.00
2023-05-12T16:37:32.314Z,1.23
2023-05-12T16:40:01.629Z,1.20
2023-05-12T16:42:29.675Z,1.17
2023-05-12T16:44:57.923Z,1.20
2023-05-12T16:47:25.809Z,0.97
2023-05-12T16:49:54.309Z,1.20
2023-05-12T16:52:22.212Z,1.20
2023-05-12T16:54:50.742Z,1.13
2023-05-12T16:57:20.358Z,1.23
2023-05-12T16:59:49.494Z,1.23
2023-05-12T17:02:17.422Z,1.10
2023-05-12T17:04:46.665Z,1.20
2023-05-12T17:07:15.768Z,1.50
2023-05-12T17:09:43.682Z,1.17
2023-05-12T17:12:11.589Z,1.00
2023-05-12T17:14:40.826Z,1.00
2023-05-12T17:17:08.732Z,0.97
2023-05-12T17:19:41.806Z,1.30
2023-05-12T17:22:09.962Z,1.20
2023-05-12T17:24:37.948Z,1.00
2023-05-12T17:27:06.384Z,1.10
2023-05-12T17:29:34.236Z,1.30
2023-05-12T17:32:03.454Z,1.10
2023-05-12T17:34:31.243Z,1.20
2023-05-12T17:36:59.264Z,1.27
2023-05-12T17:39:27.110Z,1.13
2023-05-12T17:41:54.918Z,1.30
2023-05-12T17:44:22.746Z,1.27
2023-05-12T17:46:50.736Z,1.40
2023-05-12T17:49:20.019Z,1.53
2023-05-12T17:51:49.436Z,1.60
2023-05-12T17:54:17.298Z,1.53
2023-05-12T17:56:45.124Z,1.70
2023-05-12T17:59:13.159Z,1.50
2023-05-12T18:01:41.325Z,1.30
2023-05-12T18:04:09.182Z,1.20
2023-05-12T18:06:38.679Z,1.20
2023-05-12T18:09:06.848Z,1.37
2023-05-12T18:11:35.365Z,1.00
2023-05-12T18:14:05.835Z,1.10
2023-05-12T18:16:33.776Z,1.20
2023-05-12T18:19:01.858Z,1.00
2023-05-12T18:21:29.747Z,1.10
2023-05-12T18:23:58.962Z,1.17
2023-05-12T18:26:27.533Z,1.00
2023-05-12T18:28:55.386Z,0.83
2023-05-12T18:31:23.325Z,0.93
2023-05-12T18:33:51.331Z,1.00
2023-05-12T18:36:19.206Z,1.00
2023-05-12T18:38:47.328Z,1.20
2023-05-12T18:41:16.684Z,1.13
2023-05-12T18:43:44.843Z,1.20
2023-05-12T18:46:13.591Z,1.17
2023-05-12T18:48:41.498Z,1.10
2023-05-12T18:51:09.682Z,1.17
2023-05-12T18:53:37.741Z,1.10
2023-05-12T18:56:06.100Z,1.30
2023-05-12T18:58:35.446Z,1.30
2023-05-12T19:01:04.174Z,1.27
2023-05-12T19:03:33.216Z,1.40
2023-05-12T19:06:01.182Z,1.30
2023-05-12T19:08:29.048Z,1.47
2023-05-12T19:10:56.909Z,1.43
2023-05-12T19:13:24.797Z,1.47
2023-05-12T19:15:54.028Z,1.70
2023-05-12T19:18:22.086Z,1.47
2023-05-12T19:20:49.952Z,1.50
2023-05-12T19:23:17.764Z,1.50
2023-05-12T19:25:45.594Z,1.60
2023-05-12T19:28:13.410Z,1.67
2023-05-12T19:30:41.276Z,1.60
2023-05-12T19:33:10.549Z,1.50
2023-05-12T19:35:38.397Z,1.60
2023-05-12T19:38:06.319Z,1.47
2023-05-12T19:40:34.168Z,1.40
2023-05-12T19:43:02.141Z,1.50
2023-05-12T19:45:30.170Z,1.40
2023-05-12T19:47:59.174Z,1.40
2023-05-12T19:50:29.420Z,1.40
2023-05-12T19:52:57.284Z,1.27
2023-05-12T19:55:25.107Z,1.23
2023-05-12T19:57:52.980Z,1.30
2023-05-12T20:00:22.163Z,1.47
2023-05-12T20:02:50.262Z,1.70
2023-05-12T20:05:18.470Z,1.40
2023-05-12T20:07:48.467Z,1.50
2023-05-12T20:10:16.554Z,1.40
2023-05-12T20:12:44.623Z,1.50
2023-05-12T20:15:13.286Z,1.40
2023-05-12T20:17:41.262Z,1.80
2023-05-12T20:20:11.467Z,1.67
2023-05-12T20:22:39.467Z,2.20
2023-05-12T20:25:12.376Z,1.67
2023-05-12T20:27:40.258Z,2.10
2023-05-12T20:30:09.807Z,1.80
2023-05-12T20:32:37.847Z,1.80
2023-05-12T20:35:06.480Z,1.80
2023-05-12T20:37:34.532Z,1.93
2023-05-12T20:40:02.648Z,2.03
2023-05-12T20:42:31.879Z,2.23
2023-05-12T20:44:59.903Z,1.93
2023-05-12T20:47:27.934Z,1.90
2023-05-12T20:49:57.211Z,1.73
2023-05-12T20:52:28.908Z,1.80
2023-05-12T20:54:57.997Z,1.80
2023-05-12T20:57:25.964Z,2.10
2023-05-12T20:59:56.987Z,2.00
2023-05-12T21:02:25.117Z,2.03
2023-05-12T21:04:53.457Z,1.90
2023-05-12T21:07:21.976Z,2.30
2023-05-12T21:09:49.972Z,2.17
2023-05-12T21:12:17.827Z,2.20
2023-05-12T21:14:46.455Z,2.30
2023-05-12T21:17:16.672Z,2.30
2023-05-12T21:19:44.496Z,2.20
2023-05-12T21:22:13.024Z,2.30
2023-05-12T21:24:41.844Z,2.10
2023-05-12T21:27:09.904Z,2.30
2023-05-12T21:29:37.792Z,2.37
2023-05-12T21:32:06.385Z,2.40
2023-05-12T21:34:36.094Z,2.30
2023-05-12T21:37:04.069Z,2.30
2023-05-12T21:39:31.913Z,2.33
2023-05-12T21:41:59.700Z,2.20
2023-05-12T21:44:27.608Z,2.37
2023-05-12T21:46:55.461Z,2.87
2023-05-12T21:49:23.316Z,3.00
2023-05-12T21:51:55.913Z,2.60
2023-05-12T21:54:23.762Z,2.30
2023-05-12T21:56:51.692Z,2.57
2023-05-12T21:59:19.568Z,2.60
2023-05-12T22:01:47.508Z,2.80
2023-05-12T22:04:15.443Z,2.43
2023-05-12T22:06:43.513Z,2.53
2023-05-12T22:09:12.874Z,2.73
2023-05-12T22:11:40.813Z,2.93
2023-05-12T22:14:08.862Z,2.83
2023-05-12T22:16:41.874Z,3.40
2023-05-12T22:19:10.573Z,3.13
2023-05-12T22:21:38.590Z,2.80
2023-05-12T22:24:07.056Z,3.13
2023-05-12T22:26:36.304Z,3.63
2023-05-12T22:29:04.138Z,3.50
2023-05-12T22:31:31.991Z,3.40
2023-05-12T22:33:59.850Z,3.40
2023-05-12T22:36:27.999Z,3.50
2023-05-12T22:38:55.807Z,3.63
2023-05-12T22:41:23.630Z,3.20
2023-05-12T22:43:52.982Z,3.30
2023-05-12T22:46:20.816Z,3.20
2023-05-12T22:48:48.664Z,3.07
2023-05-12T22:51:16.501Z,3.37
2023-05-12T22:53:44.345Z,2.90
2023-05-12T22:56:12.220Z,2.73
2023-05-12T22:58:40.081Z,2.77
2023-05-12T23:01:09.329Z,2.93
2023-05-12T23:03:37.251Z,2.73
2023-05-12T23:06:05.374Z,2.93
2023-05-12T23:08:33.205Z,2.80
2023-05-12T23:11:00.994Z,2.97
2023-05-12T23:13:28.815Z,2.83
2023-05-12T23:15:56.681Z,2.37
2023-05-12T23:18:25.983Z,2.77
2023-05-12T23:20:53.802Z,2.77
2023-05-12T23:23:21.676Z,2.63
2023-05-12T23:25:49.532Z,2.40
2023-05-12T23:28:17.393Z,2.37
2023-05-12T23:30:45.471Z,2.50
2023-05-12T23:33:13.495Z,2.40
2023-05-12T23:35:42.862Z,2.43
2023-05-12T23:38:10.876Z,2.37
2023-05-12T23:40:39.374Z,2.30
2023-05-12T23:43:07.336Z,1.97
2023-05-12T23:45:35.593Z,2.17
2023-05-12T23:48:03.438Z,2.03
2023-05-12T23:50:31.348Z,2.37
2023-05-12T23:53:00.644Z,2.20
2023-05-12T23:55:28.867Z,2.30
2023-05-12T23:57:56.791Z,2.00
